Time,TemperatureF,DewpointF,PressureIn,WindDirection,WindDirectionDegrees,WindSpeedMPH,WindSpeedGustMPH,Humidity,HourlyPrecipIn,Conditions,Clouds,dailyrainin,SoftwareType,DateUTC
2013-08-03 00:00:00,67.3,29.3,29.86,WSW,254,3.0,15.0,24,0.00,,,0.00,VWS V14.01,2013-08-03 04:00:00,
2013-08-03 00:01:00,67.2,29.2,29.87,SW,229,5.0,15.0,24,0.00,,CLR,0.01,VWS V14.01,2013-08-03 04:01:00,
2013-08-03 00:06:00,67.3,29.3,29.87,WSW,257,6.0,15.0,24,0.00,,CLR,0.01,VWS V14.01,2013-08-03 04:06:00,
2013-08-03 00:10:00,67.4,29.4,29.86,SSW,202,11.0,17.0,24,0.00,,,0.00,VWS V14.01,2013-08-03 04:10:00,
2013-08-03 00:11:00,67.4,30.4,29.86,WSW,253,4.0,17.0,25,0.00,,CLR,0.00,VWS V14.01,2013-08-03 04:11:00,
2013-08-03 00:16:00,67.4,29.4,29.86,West,259,3.0,17.0,24,0.00,,CLR,0.00,VWS V14.01,2013-08-03 04:16:00,
2013-08-03 00:20:00,67.4,30.4,29.86,West,268,3.0,15.0,25,0.00,,,0.00,VWS V14.01,2013-08-03 04:20:00,
2013-08-03 00:21:00,67.5,29.5,29.86,West,265,11.0,14.0,24,0.00,,CLR,0.00,VWS V14.01,2013-08-03 04:21:00,
2013-08-03 00:26:00,67.4,30.4,29.86,West,269,5.0,15.0,25,0.00,,CLR,0.00,VWS V14.01,2013-08-03 04:26:00,
2013-08-03 00:30:00,67.4,30.4,29.86,WSW,257,9.0,15.0,25,0.00,,,0.00,VWS V14.01,2013-08-03 04:30:00,
2013-08-03 00:31:00,67.4,30.4,29.86,West,261,6.0,13.0,25,0.00,,CLR,0.00,VWS V14.01,2013-08-03 04:31:00,
2013-08-03 00:36:00,67.5,31.4,29.86,West,268,6.0,15.0,26,0.00,,CLR,0.00,VWS V14.01,2013-08-03 04:36:00,
2013-08-03 00:40:00,67.6,33.4,29.86,WSW,242,13.0,16.0,28,0.00,,,0.00,VWS V14.01,2013-08-03 04:40:00,
2013-08-03 00:41:00,67.4,31.4,29.86,WSW,240,4.0,11.0,26,0.00,,CLR,0.00,VWS V14.01,2013-08-03 04:41:00,
2013-08-03 00:46:00,67.6,32.5,29.86,West,266,9.0,15.0,27,0.00,,CLR,0.00,VWS V14.01,2013-08-03 04:46:00,
2013-08-03 00:50:00,67.6,33.4,29.85,SW,233,8.0,17.0,28,0.00,,,0.00,VWS V14.01,2013-08-03 04:50:00,
2013-08-03 00:51:00,67.8,35.3,29.86,West,261,7.0,17.0,30,0.00,,CLR,0.00,VWS V14.01,2013-08-03 04:51:00,
2013-08-03 00:56:00,67.6,33.4,29.85,West,280,7.0,17.0,28,0.00,,CLR,0.00,VWS V14.01,2013-08-03 04:56:00,
2013-08-03 01:00:00,67.8,33.5,29.85,West,267,6.0,17.0,28,0.00,,,0.00,VWS V14.01,2013-08-03 05:00:00,
2013-08-03 01:01:00,67.7,33.5,29.85,West,259,10.0,17.0,28,0.00,,CLR,0.00,VWS V14.01,2013-08-03 05:01:00,
2013-08-03 01:07:00,67.8,33.5,29.85,WSW,247,9.0,17.0,28,0.00,,CLR,0.00,VWS V14.01,2013-08-03 05:07:00,
2013-08-03 01:10:00,67.9,31.8,29.85,WSW,239,5.0,14.0,26,0.00,,,0.00,VWS V14.01,2013-08-03 05:10:00,
2013-08-03 01:12:00,67.9,33.6,29.85,WSW,246,6.0,13.0,28,0.00,,CLR,0.00,VWS V14.01,2013-08-03 05:12:00,
2013-08-03 01:17:00,67.9,32.7,29.85,West,267,4.0,14.0,27,0.00,,CLR,0.00,VWS V14.01,2013-08-03 05:17:00,
2013-08-03 01:20:00,67.8,29.7,29.85,West,273,9.0,16.0,24,0.00,,,0.00,VWS V14.01,2013-08-03 05:20:00,
2013-08-03 01:21:00,67.8,30.7,29.85,West,261,7.0,15.0,25,0.00,,CLR,0.00,VWS V14.01,2013-08-03 05:21:00,
2013-08-03 01:26:00,67.8,29.7,29.85,West,280,5.0,16.0,24,0.00,,CLR,0.00,VWS V14.01,2013-08-03 05:26:00,
2013-08-03 01:30:00,67.8,27.6,29.85,SW,236,12.0,15.0,22,0.00,,,0.00,VWS V14.01,2013-08-03 05:30:00,
2013-08-03 01:32:00,67.8,28.7,29.85,WNW,283,5.0,14.0,23,0.00,,BKN045,0.00,VWS V14.01,2013-08-03 05:32:00,
2013-08-03 01:37:00,67.7,27.5,29.85,West,268,10.0,14.0,22,0.00,,BKN045,0.00,VWS V14.01,2013-08-03 05:37:00,
2013-08-03 01:40:00,67.8,26.5,29.85,West,267,6.0,17.0,21,0.00,,,0.00,VWS V14.01,2013-08-03 05:40:00,
2013-08-03 01:42:00,67.9,27.7,29.85,West,277,4.0,17.0,22,0.00,,BKN045,0.00,VWS V14.01,2013-08-03 05:42:00,
2013-08-03 01:47:00,67.8,26.5,29.85,West,259,13.0,17.0,21,0.00,,BKN045,0.00,VWS V14.01,2013-08-03 05:47:00,
2013-08-03 01:50:00,67.8,25.3,29.84,WSW,252,10.0,22.0,20,0.00,,,0.00,VWS V14.01,2013-08-03 05:50:00,
2013-08-03 01:52:00,67.8,25.3,29.85,WSW,253,14.0,17.0,20,0.00,,BKN045,0.00,VWS V14.01,2013-08-03 05:52:00,
2013-08-03 01:57:00,67.8,25.3,29.84,WSW,238,9.0,22.0,20,0.00,,BKN045,0.00,VWS V14.01,2013-08-03 05:57:00,
2013-08-03 02:00:00,67.8,25.3,29.84,West,268,15.0,20.0,20,0.00,,,0.00,VWS V14.01,2013-08-03 06:00:00,
2013-08-03 02:02:00,67.8,25.3,29.84,WNW,295,9.0,19.0,20,0.00,,BKN045,0.00,VWS V14.01,2013-08-03 06:02:00,
2013-08-03 02:07:00,67.9,25.4,29.84,West,266,7.0,20.0,20,0.00,,BKN045,0.00,VWS V14.01,2013-08-03 06:07:00,
2013-08-03 02:10:00,67.9,29.8,29.84,West,275,12.0,20.0,24,0.00,,,0.00,VWS V14.01,2013-08-03 06:10:00,
2013-08-03 02:12:00,67.9,26.6,29.84,West,265,11.0,19.0,21,0.00,,BKN045,0.00,VWS V14.01,2013-08-03 06:12:00,
2013-08-03 02:17:00,67.9,29.8,29.84,West,281,6.0,20.0,24,0.00,,BKN045,0.00,VWS V14.01,2013-08-03 06:17:00,
2013-08-03 02:20:00,68.0,37.1,29.84,WSW,256,10.0,22.0,32,0.00,,,0.00,VWS V14.01,2013-08-03 06:20:00,
2013-08-03 02:22:00,68.0,36.3,29.84,West,259,9.0,22.0,31,0.00,,BKN045,0.00,VWS V14.01,2013-08-03 06:22:00,
2013-08-03 02:27:00,68.0,37.1,29.84,West,266,12.0,22.0,32,0.00,,BKN045,0.00,VWS V14.01,2013-08-03 06:27:00,
2013-08-03 02:30:00,67.9,36.2,29.83,West,272,14.0,25.0,31,0.00,,,0.00,VWS V14.01,2013-08-03 06:30:00,
2013-08-03 02:32:00,68.0,37.1,29.84,WNW,287,19.0,21.0,32,0.00,,OVC041,0.00,VWS V14.01,2013-08-03 06:32:00,
2013-08-03 02:37:00,67.9,36.2,29.83,West,281,9.0,25.0,31,0.00,,OVC041,0.00,VWS V14.01,2013-08-03 06:37:00,
2013-08-03 02:40:00,67.6,35.9,29.83,West,281,13.0,21.0,31,0.00,,,0.00,VWS V14.01,2013-08-03 06:40:00,
2013-08-03 02:42:00,67.8,36.1,29.83,SW,234,11.0,18.0,31,0.00,,OVC041,0.00,VWS V14.01,2013-08-03 06:42:00,
2013-08-03 02:47:00,67.6,35.9,29.83,West,273,21.0,21.0,31,0.00,,OVC041,0.00,VWS V14.01,2013-08-03 06:47:00,
2013-08-03 02:50:00,67.6,33.4,29.84,West,277,4.0,22.0,28,0.00,,,0.00,VWS V14.01,2013-08-03 06:50:00,
2013-08-03 02:52:00,67.6,35.1,29.84,West,274,10.0,22.0,30,0.00,,OVC041,0.00,VWS V14.01,2013-08-03 06:52:00,
2013-08-03 02:57:00,67.6,34.2,29.84,WNW,295,14.0,22.0,29,0.00,,OVC041,0.00,VWS V14.01,2013-08-03 06:57:00,
2013-08-03 03:00:00,67.2,29.2,29.84,WNW,292,10.0,24.0,24,0.00,,,0.00,VWS V14.01,2013-08-03 07:00:00,
2013-08-03 03:02:00,67.5,32.4,29.84,WNW,286,17.0,22.0,27,0.00,,OVC041,0.00,VWS V14.01,2013-08-03 07:02:00,
2013-08-03 03:07:00,67.3,30.3,29.84,West,275,22.0,22.0,25,0.00,,OVC041,0.00,VWS V14.01,2013-08-03 07:07:00,
2013-08-03 03:10:00,65.1,0.0,29.84,WNW,302,17.0,24.0,0,0.01,,,0.01,VWS V14.01,2013-08-03 07:10:00,
2013-08-03 03:12:00,66.5,14.2,29.84,West,278,16.0,24.0,13,0.00,,OVC041,0.00,VWS V14.01,2013-08-03 07:12:00,
2013-08-03 03:17:00,65.2,0.0,29.84,West,261,14.0,24.0,0,0.01,,OVC041,0.01,VWS V14.01,2013-08-03 07:17:00,
2013-08-03 03:20:00,63.8,0.0,29.86,WNW,288,16.0,19.0,0,0.02,,,0.02,VWS V14.01,2013-08-03 07:20:00,
2013-08-03 03:22:00,64.4,0.0,29.86,WNW,286,13.0,18.0,0,0.01,,OVC041,0.01,VWS V14.01,2013-08-03 07:22:00,
2013-08-03 03:27:00,63.8,0.0,29.86,West,272,6.0,19.0,0,0.02,,OVC041,0.02,VWS V14.01,2013-08-03 07:27:00,
2013-08-03 03:30:00,62.9,0.0,29.87,West,278,10.0,20.0,0,0.02,,,0.02,VWS V14.01,2013-08-03 07:30:00,
2013-08-03 03:32:00,63.4,0.0,29.86,WNW,296,9.0,20.0,0,0.02,,BKN047,0.02,VWS V14.01,2013-08-03 07:32:00,
2013-08-03 03:37:00,62.9,0.0,29.87,WNW,284,17.0,20.0,0,0.02,,BKN047,0.02,VWS V14.01,2013-08-03 07:37:00,
2013-08-03 03:40:00,62.3,0.0,29.87,West,280,13.0,22.0,0,0.02,,,0.02,VWS V14.01,2013-08-03 07:40:00,
2013-08-03 03:42:00,62.7,0.0,29.87,West,277,12.0,22.0,0,0.02,,BKN047,0.02,VWS V14.01,2013-08-03 07:42:00,
2013-08-03 03:47:00,62.4,0.0,29.87,West,261,9.0,22.0,0,0.02,,BKN047,0.02,VWS V14.01,2013-08-03 07:47:00,
2013-08-03 03:50:00,61.9,0.0,29.87,WNW,286,10.0,22.0,0,0.03,,,0.03,VWS V14.01,2013-08-03 07:50:00,
2013-08-03 03:52:00,62.2,0.0,29.87,NW,309,13.0,22.0,0,0.03,,BKN047,0.03,VWS V14.01,2013-08-03 07:52:00,
2013-08-03 03:57:00,61.9,0.0,29.87,West,274,12.0,22.0,0,0.03,,BKN047,0.03,VWS V14.01,2013-08-03 07:57:00,
2013-08-03 04:00:00,61.4,0.0,29.88,WNW,285,13.0,22.0,0,0.03,,,0.03,VWS V14.01,2013-08-03 08:00:00,
2013-08-03 04:02:00,61.5,0.0,29.87,West,277,14.0,19.0,0,0.03,,BKN047,0.03,VWS V14.01,2013-08-03 08:02:00,
2013-08-03 04:07:00,61.4,0.0,29.88,West,265,7.0,22.0,0,0.03,,BKN047,0.03,VWS V14.01,2013-08-03 08:07:00,
2013-08-03 04:10:00,61.4,0.0,29.88,WNW,289,11.0,22.0,0,0.03,,,0.03,VWS V14.01,2013-08-03 08:10:00,
2013-08-03 04:12:00,61.5,0.0,29.88,WNW,284,9.0,22.0,0,0.03,,BKN047,0.03,VWS V14.01,2013-08-03 08:12:00,
2013-08-03 04:17:00,61.4,0.0,29.88,WNW,295,14.0,22.0,0,0.03,,BKN047,0.03,VWS V14.01,2013-08-03 08:17:00,
2013-08-03 04:20:00,61.2,0.0,29.87,West,261,17.0,19.0,0,0.02,,,0.03,VWS V14.01,2013-08-03 08:20:00,
2013-08-03 04:22:00,61.3,0.0,29.87,West,276,13.0,14.0,0,0.02,,BKN047,0.03,VWS V14.01,2013-08-03 08:22:00,
2013-08-03 04:27:00,61.2,0.0,29.87,WNW,298,12.0,18.0,0,0.02,,BKN047,0.03,VWS V14.01,2013-08-03 08:27:00,
2013-08-03 04:30:00,61.2,0.0,29.87,WNW,286,10.0,20.0,0,0.01,,,0.03,VWS V14.01,2013-08-03 08:30:00,
2013-08-03 04:33:00,61.1,0.0,29.87,WNW,288,11.0,20.0,0,0.01,,-RA,0.03,VWS V14.01,2013-08-03 08:33:00,
2013-08-03 04:37:00,61.2,0.0,29.87,West,274,14.0,20.0,0,0.01,,-RA,0.03,VWS V14.01,2013-08-03 08:37:00,
2013-08-03 04:40:00,61.3,0.0,29.87,West,279,15.0,22.0,0,0.01,,,0.03,VWS V14.01,2013-08-03 08:40:00,
2013-08-03 04:42:00,61.2,0.0,29.87,West,279,14.0,22.0,0,0.01,,-RA,0.03,VWS V14.01,2013-08-03 08:42:00,
2013-08-03 04:48:00,61.3,0.0,29.87,WNW,291,14.0,22.0,0,0.01,,-RA,0.03,VWS V14.01,2013-08-03 08:48:00,
2013-08-03 04:50:00,61.3,0.0,29.87,NW,311,7.0,18.0,0,0.01,,,0.03,VWS V14.01,2013-08-03 08:50:00,
2013-08-03 04:53:00,61.3,0.0,29.87,West,281,17.0,17.0,0,0.01,,-RA,0.03,VWS V14.01,2013-08-03 08:53:00,
2013-08-03 04:58:00,61.3,0.0,29.87,WSW,246,12.0,18.0,0,0.01,,-RA,0.03,VWS V14.01,2013-08-03 08:58:00,
2013-08-03 05:00:00,61.2,0.0,29.87,WSW,252,16.0,20.0,0,0.00,,,0.03,VWS V14.01,2013-08-03 09:00:00,
2013-08-03 05:03:00,61.3,0.0,29.87,WSW,256,12.0,17.0,0,0.00,,-RA,0.03,VWS V14.01,2013-08-03 09:03:00,
2013-08-03 05:08:00,61.3,0.0,29.87,WNW,298,9.0,20.0,0,0.00,,-RA,0.03,VWS V14.01,2013-08-03 09:08:00,
2013-08-03 05:10:00,61.2,0.0,29.87,WNW,283,7.0,18.0,0,0.01,,,0.04,VWS V14.01,2013-08-03 09:10:00,
2013-08-03 05:13:00,61.3,0.0,29.87,West,272,8.0,17.0,0,0.00,,-RA,0.03,VWS V14.01,2013-08-03 09:13:00,
2013-08-03 05:18:00,61.2,0.0,29.87,WNW,297,7.0,18.0,0,0.01,,-RA,0.04,VWS V14.01,2013-08-03 09:18:00,
2013-08-03 05:20:00,60.9,0.0,29.87,WNW,283,9.0,16.0,0,0.01,,,0.04,VWS V14.01,2013-08-03 09:20:00,
2013-08-03 05:23:00,60.9,0.0,29.87,West,268,7.0,16.0,0,0.01,,-RA,0.04,VWS V14.01,2013-08-03 09:23:00,
2013-08-03 05:28:00,60.9,0.0,29.87,West,273,11.0,16.0,0,0.01,,-RA,0.04,VWS V14.01,2013-08-03 09:28:00,
2013-08-03 05:30:00,60.9,0.0,29.87,West,265,19.0,21.0,0,0.01,,,0.04,VWS V14.01,2013-08-03 09:30:00,
2013-08-03 05:33:00,60.9,0.0,29.87,WNW,286,7.0,21.0,0,0.01,,-RA,0.04,VWS V14.01,2013-08-03 09:33:00,
2013-08-03 05:38:00,60.9,0.0,29.87,WNW,286,17.0,21.0,0,0.01,,-RA,0.04,VWS V14.01,2013-08-03 09:38:00,
2013-08-03 05:40:00,61.0,0.0,29.87,WSW,252,6.0,20.0,0,0.01,,,0.04,VWS V14.01,2013-08-03 09:40:00,
2013-08-03 05:43:00,61.0,0.0,29.87,West,281,12.0,20.0,0,0.01,,-RA,0.04,VWS V14.01,2013-08-03 09:43:00,
2013-08-03 05:48:00,61.0,0.0,29.87,WNW,285,7.0,20.0,0,0.01,,-RA,0.04,VWS V14.01,2013-08-03 09:48:00,
2013-08-03 05:50:00,60.8,0.0,29.87,WNW,290,9.0,16.0,0,0.01,,,0.04,VWS V14.01,2013-08-03 09:50:00,
2013-08-03 05:53:00,60.8,0.0,29.87,WNW,282,14.0,16.0,0,0.01,,-RA,0.04,VWS V14.01,2013-08-03 09:53:00,
2013-08-03 05:58:00,60.8,0.0,29.87,WNW,290,12.0,16.0,0,0.01,,-RA,0.04,VWS V14.01,2013-08-03 09:58:00,
2013-08-03 06:00:00,60.9,0.0,29.87,West,267,11.0,18.0,0,0.01,,,0.04,VWS V14.01,2013-08-03 10:00:00,
2013-08-03 06:03:00,60.8,0.0,29.87,West,279,14.0,18.0,0,0.01,,-RA,0.04,VWS V14.01,2013-08-03 10:03:00,
2013-08-03 06:08:00,60.9,0.0,29.87,West,263,11.0,18.0,0,0.01,,-RA,0.04,VWS V14.01,2013-08-03 10:08:00,
2013-08-03 06:10:00,60.7,0.0,29.87,WNW,299,6.0,17.0,0,0.02,,,0.05,VWS V14.01,2013-08-03 10:10:00,
2013-08-03 06:13:00,60.9,0.0,29.87,WNW,284,6.0,16.0,0,0.02,,-RA,0.05,VWS V14.01,2013-08-03 10:13:00,
2013-08-03 06:18:00,60.7,0.0,29.87,WNW,299,6.0,17.0,0,0.02,,-RA,0.05,VWS V14.01,2013-08-03 10:18:00,
2013-08-03 06:20:00,60.6,0.0,29.87,West,277,7.0,17.0,0,0.01,,,0.05,VWS V14.01,2013-08-03 10:20:00,
2013-08-03 06:23:00,60.6,0.0,29.87,West,273,11.0,13.0,0,0.01,,-RA,0.05,VWS V14.01,2013-08-03 10:23:00,
2013-08-03 06:28:00,60.6,0.0,29.87,West,277,7.0,17.0,0,0.01,,-RA,0.05,VWS V14.01,2013-08-03 10:28:00,
2013-08-03 06:30:00,60.5,0.0,29.87,WSW,251,9.0,14.0,0,0.01,,,0.05,VWS V14.01,2013-08-03 10:30:00,
2013-08-03 06:33:00,60.6,0.0,29.87,WNW,290,6.0,14.0,0,0.01,,-RA,0.05,VWS V14.01,2013-08-03 10:33:00,
2013-08-03 06:38:00,60.5,0.0,29.87,WNW,283,7.0,9.0,0,0.01,,-RA,0.05,VWS V14.01,2013-08-03 10:38:00,
2013-08-03 06:40:00,60.3,0.0,29.87,WNW,286,12.0,17.0,0,0.01,,,0.05,VWS V14.01,2013-08-03 10:40:00,
2013-08-03 06:43:00,60.4,0.0,29.87,West,259,10.0,17.0,0,0.01,,-RA,0.05,VWS V14.01,2013-08-03 10:43:00,
2013-08-03 06:48:00,60.3,0.0,29.87,West,271,11.0,12.0,0,0.01,,-RA,0.05,VWS V14.01,2013-08-03 10:48:00,
2013-08-03 06:50:00,60.3,0.0,29.87,West,278,9.0,18.0,0,0.01,,,0.05,VWS V14.01,2013-08-03 10:50:00,
2013-08-03 06:53:00,60.4,0.0,29.87,WNW,287,5.0,18.0,0,0.01,,-RA,0.05,VWS V14.01,2013-08-03 10:53:00,
2013-08-03 06:58:00,60.3,0.0,29.87,West,276,11.0,11.0,0,0.01,,-RA,0.05,VWS V14.01,2013-08-03 10:58:00,
2013-08-03 07:00:00,60.1,0.0,29.87,West,267,11.0,15.0,0,0.01,,,0.05,VWS V14.01,2013-08-03 11:00:00,
2013-08-03 07:03:00,60.1,0.0,29.87,West,280,8.0,15.0,0,0.01,,BKN100,0.05,VWS V14.01,2013-08-03 11:03:00,
2013-08-03 07:08:00,60.1,0.0,29.87,West,280,11.0,13.0,0,0.01,,BKN100,0.05,VWS V14.01,2013-08-03 11:08:00,
2013-08-03 07:10:00,60.1,0.0,29.87,WNW,301,10.0,17.0,0,0.01,,,0.05,VWS V14.01,2013-08-03 11:10:00,
2013-08-03 07:13:00,60.1,0.0,29.87,WNW,286,10.0,17.0,0,0.01,,BKN100,0.05,VWS V14.01,2013-08-03 11:13:00,
2013-08-03 07:18:00,60.0,0.0,29.87,NW,304,12.0,12.0,0,0.00,,BKN100,0.05,VWS V14.01,2013-08-03 11:18:00,
2013-08-03 07:20:00,60.0,0.0,29.88,WNW,302,6.0,15.0,0,0.00,,,0.05,VWS V14.01,2013-08-03 11:20:00,
2013-08-03 07:23:00,60.0,0.0,29.88,WNW,295,12.0,15.0,0,0.00,,BKN100,0.05,VWS V14.01,2013-08-03 11:23:00,
2013-08-03 07:28:00,60.0,0.0,29.88,WNW,290,7.0,7.0,0,0.00,,BKN100,0.05,VWS V14.01,2013-08-03 11:28:00,
2013-08-03 07:30:00,60.0,0.0,29.88,WNW,286,15.0,17.0,0,0.00,,,0.05,VWS V14.01,2013-08-03 11:30:00,
2013-08-03 07:33:00,60.0,0.0,29.88,WNW,282,10.0,14.0,0,0.00,,OVC016,0.05,VWS V14.01,2013-08-03 11:33:00,
2013-08-03 07:38:00,60.1,0.0,29.88,NW,322,12.0,15.0,0,0.00,,OVC016,0.05,VWS V14.01,2013-08-03 11:38:00,
2013-08-03 07:40:00,60.1,0.0,29.88,WNW,290,6.0,15.0,0,0.00,,,0.05,VWS V14.01,2013-08-03 11:40:00,
2013-08-03 07:43:00,60.0,0.0,29.88,WNW,300,8.0,15.0,0,0.00,,OVC016,0.05,VWS V14.01,2013-08-03 11:43:00,
2013-08-03 07:48:00,60.1,0.0,29.88,WNW,284,6.0,7.0,0,0.00,,OVC016,0.05,VWS V14.01,2013-08-03 11:48:00,
2013-08-03 07:50:00,60.4,0.0,29.88,West,281,11.0,15.0,0,0.00,,,0.05,VWS V14.01,2013-08-03 11:50:00,
2013-08-03 07:53:00,60.2,0.0,29.88,WNW,294,5.0,15.0,0,0.00,,OVC016,0.05,VWS V14.01,2013-08-03 11:53:00,
2013-08-03 07:58:00,60.4,0.0,29.88,WNW,294,12.0,13.0,0,0.00,,OVC016,0.05,VWS V14.01,2013-08-03 11:58:00,
2013-08-03 08:00:00,60.5,0.0,29.89,WSW,257,5.0,15.0,0,0.00,,,0.05,VWS V14.01,2013-08-03 12:00:00,
2013-08-03 08:03:00,60.5,0.0,29.88,West,261,12.0,15.0,0,0.00,,OVC016,0.05,VWS V14.01,2013-08-03 12:03:00,
2013-08-03 08:08:00,60.5,0.0,29.89,West,269,4.0,7.0,0,0.00,,OVC016,0.05,VWS V14.01,2013-08-03 12:08:00,
2013-08-03 08:10:00,60.5,0.0,29.89,WNW,284,6.0,13.0,0,0.00,,,0.05,VWS V14.01,2013-08-03 12:10:00,
2013-08-03 08:13:00,60.5,0.0,29.89,WNW,294,10.0,13.0,0,0.00,,OVC016,0.05,VWS V14.01,2013-08-03 12:13:00,
2013-08-03 08:18:00,60.5,0.0,29.89,WNW,290,10.0,12.0,0,0.00,,OVC016,0.05,VWS V14.01,2013-08-03 12:18:00,
2013-08-03 08:20:00,60.5,0.0,29.90,West,277,7.0,17.0,0,0.00,,,0.05,VWS V14.01,2013-08-03 12:20:00,
2013-08-03 08:23:00,60.5,0.0,29.90,WNW,287,7.0,17.0,0,0.00,,OVC016,0.05,VWS V14.01,2013-08-03 12:23:00,
2013-08-03 08:28:00,60.5,0.0,29.90,West,261,6.0,7.0,0,0.00,,OVC016,0.05,VWS V14.01,2013-08-03 12:28:00,
2013-08-03 08:30:00,60.4,0.0,29.90,West,281,6.0,14.0,0,0.01,,,0.06,VWS V14.01,2013-08-03 12:30:00,
2013-08-03 08:33:00,60.5,0.0,29.90,WNW,283,5.0,14.0,0,0.00,,OVC009,0.05,VWS V14.01,2013-08-03 12:33:00,
2013-08-03 08:38:00,60.4,0.0,29.90,West,272,4.0,10.0,0,0.01,,OVC009,0.06,VWS V14.01,2013-08-03 12:38:00,
2013-08-03 08:40:00,60.5,0.0,29.90,West,259,8.0,14.0,0,0.01,,,0.06,VWS V14.01,2013-08-03 12:40:00,
2013-08-03 08:44:00,60.4,0.0,29.90,WNW,288,6.0,14.0,0,0.01,,OVC009,0.06,VWS V14.01,2013-08-03 12:44:00,
2013-08-03 08:48:00,60.5,0.0,29.90,WNW,298,4.0,10.0,0,0.01,,OVC009,0.06,VWS V14.01,2013-08-03 12:48:00,
2013-08-03 08:50:00,60.7,0.0,29.89,West,277,3.0,11.0,0,0.01,,,0.06,VWS V14.01,2013-08-03 12:50:00,
2013-08-03 08:54:00,60.6,0.0,29.89,West,271,2.0,11.0,0,0.01,,OVC009,0.06,VWS V14.01,2013-08-03 12:54:00,
2013-08-03 08:58:00,60.7,0.0,29.89,WNW,289,7.0,10.0,0,0.01,,OVC009,0.06,VWS V14.01,2013-08-03 12:58:00,
2013-08-03 09:00:00,60.9,0.0,29.88,WNW,303,6.0,10.0,0,0.01,,,0.06,VWS V14.01,2013-08-03 13:00:00,
2013-08-03 09:04:00,60.9,0.0,29.89,WSW,243,7.0,10.0,0,0.01,,OVC009,0.06,VWS V14.01,2013-08-03 13:04:00,
2013-08-03 09:09:00,60.9,0.0,29.88,SW,234,6.0,6.0,0,0.01,,OVC009,0.06,VWS V14.01,2013-08-03 13:09:00,
2013-08-03 09:10:00,61.0,0.0,29.88,West,261,4.0,10.0,0,0.01,,,0.06,VWS V14.01,2013-08-03 13:10:00,
2013-08-03 09:14:00,60.9,0.0,29.88,West,269,5.0,10.0,0,0.01,,OVC009,0.06,VWS V14.01,2013-08-03 13:14:00,
2013-08-03 09:19:00,61.0,0.0,29.88,West,261,4.0,5.0,0,0.01,,OVC009,0.06,VWS V14.01,2013-08-03 13:19:00,
2013-08-03 09:20:00,61.5,0.0,29.89,WSW,252,4.0,6.0,0,0.01,,,0.06,VWS V14.01,2013-08-03 13:20:00,
2013-08-03 09:24:00,61.2,0.0,29.89,WSW,250,3.0,6.0,0,0.01,,OVC009,0.06,VWS V14.01,2013-08-03 13:24:00,
2013-08-03 09:29:00,61.5,0.0,29.89,West,260,4.0,5.0,0,0.01,,OVC009,0.06,VWS V14.01,2013-08-03 13:29:00,
2013-08-03 09:30:00,61.7,0.0,29.88,West,272,6.0,9.0,0,0.01,,,0.06,VWS V14.01,2013-08-03 13:30:00,
2013-08-03 09:34:00,61.6,0.0,29.89,West,277,4.0,6.0,0,0.01,,-RA,0.06,VWS V14.01,2013-08-03 13:34:00,
2013-08-03 09:39:00,61.7,0.0,29.88,West,259,4.0,9.0,0,0.00,,-RA,0.06,VWS V14.01,2013-08-03 13:39:00,
2013-08-03 09:40:00,61.7,0.0,29.88,WNW,290,6.0,12.0,0,0.00,,,0.06,VWS V14.01,2013-08-03 13:40:00,
2013-08-03 09:44:00,61.8,0.0,29.88,West,268,3.0,10.0,0,0.00,,-RA,0.06,VWS V14.01,2013-08-03 13:44:00,
2013-08-03 09:49:00,61.7,0.0,29.88,West,276,3.0,6.0,0,0.00,,-RA,0.06,VWS V14.01,2013-08-03 13:49:00,
2013-08-03 09:50:00,61.6,0.0,29.89,SW,225,6.0,11.0,0,0.00,,,0.06,VWS V14.01,2013-08-03 13:50:00,
2013-08-03 09:54:00,61.6,0.0,29.89,West,271,7.0,11.0,0,0.00,,-RA,0.06,VWS V14.01,2013-08-03 13:54:00,
2013-08-03 09:59:00,61.6,0.0,29.89,WSW,245,2.0,6.0,0,0.00,,-RA,0.06,VWS V14.01,2013-08-03 13:59:00,
2013-08-03 10:00:00,61.6,0.0,29.89,SW,220,6.0,9.0,0,0.00,,,0.06,VWS V14.01,2013-08-03 14:00:00,
2013-08-03 10:04:00,61.6,0.0,29.89,WSW,244,6.0,8.0,0,0.00,,-RA,0.06,VWS V14.01,2013-08-03 14:04:00,
2013-08-03 10:09:00,61.6,0.0,29.89,West,269,3.0,6.0,0,0.00,,-RA,0.06,VWS V14.01,2013-08-03 14:09:00,
2013-08-03 10:10:00,61.5,0.0,29.89,WNW,282,0.0,6.0,0,0.00,,,0.06,VWS V14.01,2013-08-03 14:10:00,
2013-08-03 10:14:00,61.6,0.0,29.89,WSW,248,4.0,6.0,0,0.00,,-RA,0.06,VWS V14.01,2013-08-03 14:14:00,
2013-08-03 10:19:00,61.5,0.0,29.89,WNW,282,3.0,3.0,0,0.00,,-RA,0.06,VWS V14.01,2013-08-03 14:19:00,
2013-08-03 10:20:00,61.3,0.0,29.89,West,263,5.0,11.0,0,0.00,,,0.06,VWS V14.01,2013-08-03 14:20:00,
2013-08-03 10:24:00,61.4,0.0,29.89,SW,229,5.0,7.0,0,0.00,,-RA,0.06,VWS V14.01,2013-08-03 14:24:00,
2013-08-03 10:29:00,61.4,0.0,29.89,West,265,4.0,10.0,0,0.00,,-RA,0.06,VWS V14.01,2013-08-03 14:29:00,
2013-08-03 10:30:00,61.4,0.0,29.90,WNW,284,3.0,10.0,0,0.00,,,0.06,VWS V14.01,2013-08-03 14:30:00,
2013-08-03 10:34:00,61.3,0.0,29.89,WSW,241,9.0,10.0,0,0.00,,OVC005,0.06,VWS V14.01,2013-08-03 14:34:00,
2013-08-03 10:39:00,61.4,0.0,29.90,West,271,4.0,4.0,0,0.00,,OVC005,0.06,VWS V14.01,2013-08-03 14:39:00,
2013-08-03 10:40:00,61.7,0.0,29.90,WSW,248,3.0,12.0,0,0.00,,,0.06,VWS V14.01,2013-08-03 14:40:00,
2013-08-03 10:44:00,61.5,0.0,29.90,SW,226,7.0,12.0,0,0.00,,OVC005,0.06,VWS V14.01,2013-08-03 14:44:00,
2013-08-03 10:49:00,61.8,0.0,29.90,WSW,252,0.0,4.0,0,0.00,,OVC005,0.06,VWS V14.01,2013-08-03 14:49:00,
2013-08-03 10:50:00,62.0,0.0,29.89,WSW,242,1.0,13.0,0,0.00,,,0.06,VWS V14.01,2013-08-03 14:50:00,
2013-08-03 10:54:00,61.9,0.0,29.89,WSW,252,4.0,13.0,0,0.00,,OVC005,0.06,VWS V14.01,2013-08-03 14:54:00,
2013-08-03 10:59:00,62.0,0.0,29.89,WSW,248,5.0,5.0,0,0.00,,OVC005,0.06,VWS V14.01,2013-08-03 14:59:00,
2013-08-03 11:00:00,61.9,0.0,29.89,West,265,14.0,14.0,0,0.00,,,0.06,VWS V14.01,2013-08-03 15:00:00,
2013-08-03 11:04:00,61.9,0.0,29.89,West,273,4.0,9.0,0,0.00,,OVC005,0.06,VWS V14.01,2013-08-03 15:04:00,
2013-08-03 11:09:00,61.9,0.0,29.89,WSW,256,6.0,14.0,0,0.00,,OVC005,0.06,VWS V14.01,2013-08-03 15:09:00,
2013-08-03 11:10:00,62.0,0.0,29.89,WSW,248,2.0,14.0,0,0.00,,,0.06,VWS V14.01,2013-08-03 15:10:00,
2013-08-03 11:14:00,62.0,0.0,29.89,WSW,249,4.0,14.0,0,0.00,,OVC005,0.06,VWS V14.01,2013-08-03 15:14:00,
2013-08-03 11:19:00,62.1,0.0,29.89,SW,227,4.0,4.0,0,0.00,,OVC005,0.06,VWS V14.01,2013-08-03 15:19:00,
2013-08-03 11:20:00,62.0,0.0,29.89,WSW,248,4.0,9.0,0,0.00,,,0.06,VWS V14.01,2013-08-03 15:20:00,
2013-08-03 11:24:00,62.0,0.0,29.89,SW,225,1.0,9.0,0,0.00,,OVC005,0.06,VWS V14.01,2013-08-03 15:24:00,
2013-08-03 11:29:00,62.1,0.0,29.89,WSW,247,1.0,4.0,0,0.00,,OVC005,0.06,VWS V14.01,2013-08-03 15:29:00,
2013-08-03 11:30:00,62.4,0.0,29.89,WSW,256,4.0,9.0,0,0.00,,,0.06,VWS V14.01,2013-08-03 15:30:00,
2013-08-03 11:34:00,62.4,0.0,29.89,West,267,7.0,9.0,0,0.00,,-RA,0.06,VWS V14.01,2013-08-03 15:34:00,
2013-08-03 11:39:00,62.5,0.0,29.89,WNW,288,4.0,5.0,0,0.00,,-RA,0.06,VWS V14.01,2013-08-03 15:39:00,
2013-08-03 11:40:00,62.8,0.0,29.89,West,268,3.0,9.0,0,0.00,,,0.06,VWS V14.01,2013-08-03 15:40:00,
2013-08-03 11:44:00,62.7,0.0,29.89,West,267,3.0,7.0,0,0.00,,-RA,0.06,VWS V14.01,2013-08-03 15:44:00,
2013-08-03 11:49:00,62.9,0.0,29.89,West,265,3.0,5.0,0,0.00,,-RA,0.06,VWS V14.01,2013-08-03 15:49:00,
2013-08-03 11:50:00,63.3,0.0,29.89,West,274,6.0,10.0,0,0.00,,,0.06,VWS V14.01,2013-08-03 15:50:00,
2013-08-03 11:54:00,63.3,0.0,29.89,West,267,6.0,10.0,0,0.00,,-RA,0.06,VWS V14.01,2013-08-03 15:54:00,
2013-08-03 11:59:00,63.3,0.0,29.89,West,260,3.0,10.0,0,0.00,,-RA,0.06,VWS V14.01,2013-08-03 15:59:00,
2013-08-03 12:00:00,63.1,0.0,29.89,WSW,242,11.0,12.0,0,0.00,,,0.06,VWS V14.01,2013-08-03 16:00:00,
2013-08-03 12:05:00,63.2,0.0,29.89,West,265,5.0,10.0,0,0.00,,-RA,0.06,VWS V14.01,2013-08-03 16:05:00,
2013-08-03 12:10:00,63.0,0.0,29.89,West,275,2.0,12.0,0,0.00,,-RA,0.06,VWS V14.01,2013-08-03 16:10:00,
2013-08-03 12:15:00,62.5,0.0,29.89,West,261,9.0,12.0,0,0.00,,-RA,0.06,VWS V14.01,2013-08-03 16:15:00,
2013-08-03 12:19:00,62.1,0.0,29.89,West,263,5.0,9.0,0,0.00,,-RA,0.06,VWS V14.01,2013-08-03 16:19:00,
2013-08-03 12:20:00,61.7,0.0,29.89,WNW,296,2.0,9.0,0,0.00,,,0.06,VWS V14.01,2013-08-03 16:20:00,
2013-08-03 12:25:00,61.8,0.0,29.89,West,259,1.0,9.0,0,0.00,,-RA,0.06,VWS V14.01,2013-08-03 16:25:00,
2013-08-03 12:30:00,61.7,0.0,29.89,West,271,2.0,4.0,0,0.00,,-RA,0.06,VWS V14.01,2013-08-03 16:30:00,
2013-08-03 12:34:00,61.7,0.0,29.89,WNW,290,3.0,5.0,0,0.00,,OVC019,0.06,VWS V14.01,2013-08-03 16:34:00,
2013-08-03 12:40:00,61.6,0.0,29.89,West,276,3.0,3.0,0,0.00,,OVC019,0.06,VWS V14.01,2013-08-03 16:40:00,
2013-08-03 12:44:00,61.6,0.0,29.89,West,260,5.0,9.0,0,0.00,,OVC019,0.06,VWS V14.01,2013-08-03 16:44:00,
2013-08-03 12:50:00,61.7,0.0,29.89,West,267,0.0,4.0,0,0.00,,OVC019,0.06,VWS V14.01,2013-08-03 16:50:00,
2013-08-03 12:55:00,61.6,0.0,29.89,West,264,4.0,6.0,0,0.00,,OVC019,0.06,VWS V14.01,2013-08-03 16:55:00,
2013-08-03 13:00:00,61.5,0.0,29.89,WSW,248,6.0,7.0,0,0.00,,OVC019,0.06,VWS V14.01,2013-08-03 17:00:00,
2013-08-03 13:05:00,61.6,0.0,29.89,West,272,5.0,9.0,0,0.00,,OVC019,0.06,VWS V14.01,2013-08-03 17:05:00,
2013-08-03 13:10:00,61.7,0.0,29.89,West,259,12.0,13.0,0,0.00,,OVC019,0.06,VWS V14.01,2013-08-03 17:10:00,
2013-08-03 13:15:00,61.7,0.0,29.89,West,280,1.0,13.0,0,0.00,,OVC019,0.06,VWS V14.01,2013-08-03 17:15:00,
2013-08-03 13:20:00,61.6,0.0,29.89,WSW,247,10.0,10.0,0,0.00,,OVC019,0.06,VWS V14.01,2013-08-03 17:20:00,
2013-08-03 13:25:00,61.5,0.0,29.89,West,273,3.0,11.0,0,0.00,,OVC019,0.06,VWS V14.01,2013-08-03 17:25:00,
2013-08-03 13:30:00,61.5,0.0,29.89,West,273,3.0,7.0,0,0.00,,OVC019,0.06,VWS V14.01,2013-08-03 17:30:00,
2013-08-03 13:35:00,61.3,0.0,29.89,WSW,251,3.0,8.0,0,0.00,,OVC015,0.06,VWS V14.01,2013-08-03 17:35:00,
2013-08-03 13:40:00,61.2,0.0,29.90,West,273,3.0,5.0,0,0.00,,OVC015,0.06,VWS V14.01,2013-08-03 17:40:00,
2013-08-03 13:45:00,61.0,0.0,29.90,WSW,254,0.0,7.0,0,0.00,,OVC015,0.06,VWS V14.01,2013-08-03 17:45:00,
2013-08-03 13:50:00,61.0,0.0,29.90,WSW,254,1.0,4.0,0,0.00,,OVC015,0.06,VWS V14.01,2013-08-03 17:50:00,
2013-08-03 13:55:00,61.2,0.0,29.90,WSW,254,5.0,5.0,0,0.00,,OVC015,0.06,VWS V14.01,2013-08-03 17:55:00,
2013-08-03 14:00:00,61.0,0.0,29.90,WSW,252,3.0,6.0,0,0.00,,OVC015,0.06,VWS V14.01,2013-08-03 18:00:00,
2013-08-03 14:05:00,61.1,0.0,29.90,WSW,243,4.0,10.0,0,0.00,,OVC015,0.06,VWS V14.01,2013-08-03 18:05:00,
2013-08-03 14:10:00,61.1,0.0,29.90,WSW,245,2.0,6.0,0,0.00,,OVC015,0.06,VWS V14.01,2013-08-03 18:10:00,
2013-08-03 14:15:00,61.1,0.0,29.90,WSW,256,4.0,6.0,0,0.00,,OVC015,0.06,VWS V14.01,2013-08-03 18:15:00,
2013-08-03 14:20:00,61.1,0.0,29.90,WSW,250,2.0,4.0,0,0.01,,OVC015,0.07,VWS V14.01,2013-08-03 18:20:00,
2013-08-03 14:25:00,61.1,0.0,29.90,WSW,252,3.0,4.0,0,0.02,,OVC015,0.08,VWS V14.01,2013-08-03 18:25:00,
2013-08-03 14:30:00,61.1,0.0,29.90,WSW,252,0.0,2.0,0,0.02,,OVC015,0.08,VWS V14.01,2013-08-03 18:30:00,
2013-08-03 14:35:00,61.2,0.0,29.90,WSW,252,3.0,3.0,0,0.02,,-RA,0.08,VWS V14.01,2013-08-03 18:35:00,
2013-08-03 14:40:00,61.1,0.0,29.89,WSW,252,0.0,2.0,0,0.02,,-RA,0.08,VWS V14.01,2013-08-03 18:40:00,
2013-08-03 14:45:00,61.3,0.0,29.89,WSW,250,2.0,4.0,0,0.02,,-RA,0.08,VWS V14.01,2013-08-03 18:45:00,
2013-08-03 14:50:00,61.2,0.0,29.89,West,271,5.0,8.0,0,0.02,,-RA,0.08,VWS V14.01,2013-08-03 18:50:00,
2013-08-03 14:55:00,61.2,0.0,29.89,WSW,256,5.0,10.0,0,0.02,,-RA,0.08,VWS V14.01,2013-08-03 18:55:00,
2013-08-03 15:00:00,61.6,0.0,29.89,West,261,5.0,5.0,0,0.02,,-RA,0.08,VWS V14.01,2013-08-03 19:00:00,
2013-08-03 15:06:00,61.7,0.0,29.89,West,280,3.0,13.0,0,0.02,,-RA,0.08,VWS V14.01,2013-08-03 19:06:00,
2013-08-03 15:10:00,62.6,0.0,29.88,WSW,247,4.0,8.0,0,0.02,,,0.08,VWS V14.01,2013-08-03 19:10:00,
2013-08-03 15:11:00,62.1,0.0,29.88,West,259,4.0,7.0,0,0.02,,-RA,0.08,VWS V14.01,2013-08-03 19:11:00,
2013-08-03 15:16:00,62.3,0.0,29.88,West,273,5.0,7.0,0,0.02,,-RA,0.08,VWS V14.01,2013-08-03 19:16:00,
2013-08-03 15:20:00,62.3,0.0,29.89,WNW,288,5.0,10.0,0,0.01,,,0.08,VWS V14.01,2013-08-03 19:20:00,
2013-08-03 15:21:00,62.6,0.0,29.88,WSW,248,4.0,10.0,0,0.01,,-RA,0.08,VWS V14.01,2013-08-03 19:21:00,
2013-08-03 15:26:00,62.4,0.0,29.89,NW,311,5.0,10.0,0,0.01,,-RA,0.08,VWS V14.01,2013-08-03 19:26:00,
2013-08-03 15:30:00,62.2,0.0,29.89,West,262,5.0,11.0,0,0.00,,,0.08,VWS V14.01,2013-08-03 19:30:00,
2013-08-03 15:31:00,62.2,0.0,29.89,West,275,3.0,7.0,0,0.00,,-RA,0.08,VWS V14.01,2013-08-03 19:31:00,
2013-08-03 15:36:00,62.3,0.0,29.89,WSW,248,5.0,11.0,0,0.00,,-RA,0.08,VWS V14.01,2013-08-03 19:36:00,
2013-08-03 15:40:00,62.1,0.0,29.89,WSW,246,5.0,6.0,0,0.00,,,0.08,VWS V14.01,2013-08-03 19:40:00,
2013-08-03 15:41:00,62.3,0.0,29.89,West,260,4.0,5.0,0,0.00,,-RA,0.08,VWS V14.01,2013-08-03 19:41:00,
2013-08-03 15:46:00,62.2,0.0,29.89,SW,236,5.0,5.0,0,0.00,,-RA,0.08,VWS V14.01,2013-08-03 19:46:00,
2013-08-03 15:50:00,61.9,0.0,29.89,WSW,257,6.0,14.0,0,0.00,,,0.08,VWS V14.01,2013-08-03 19:50:00,
2013-08-03 15:51:00,62.0,0.0,29.89,WSW,247,9.0,10.0,0,0.00,,-RA,0.08,VWS V14.01,2013-08-03 19:51:00,
2013-08-03 15:56:00,62.0,0.0,29.89,West,260,5.0,12.0,0,0.00,,-RA,0.08,VWS V14.01,2013-08-03 19:56:00,
2013-08-03 16:00:00,62.1,0.0,29.88,WSW,254,1.0,10.0,0,0.00,,,0.08,VWS V14.01,2013-08-03 20:00:00,
2013-08-03 16:01:00,61.9,0.0,29.89,West,279,6.0,10.0,0,0.00,,SCT030,0.08,VWS V14.01,2013-08-03 20:01:00,
2013-08-03 16:06:00,62.0,0.0,29.89,WSW,255,0.0,10.0,0,0.00,,SCT030,0.08,VWS V14.01,2013-08-03 20:06:00,
2013-08-03 16:10:00,62.2,0.0,29.88,WSW,237,5.0,7.0,0,0.00,,,0.08,VWS V14.01,2013-08-03 20:10:00,
2013-08-03 16:11:00,62.2,0.0,29.88,WSW,254,3.0,3.0,0,0.00,,SCT030,0.08,VWS V14.01,2013-08-03 20:11:00,
2013-08-03 16:16:00,62.2,0.0,29.88,WSW,248,3.0,6.0,0,0.00,,SCT030,0.08,VWS V14.01,2013-08-03 20:16:00,
2013-08-03 16:20:00,62.7,0.0,29.88,WNW,286,0.0,7.0,0,0.00,,,0.08,VWS V14.01,2013-08-03 20:20:00,
2013-08-03 16:21:00,62.3,0.0,29.88,WSW,253,5.0,7.0,0,0.00,,SCT030,0.08,VWS V14.01,2013-08-03 20:21:00,
2013-08-03 16:26:00,62.5,0.0,29.88,WSW,256,3.0,7.0,0,0.00,,SCT030,0.08,VWS V14.01,2013-08-03 20:26:00,
2013-08-03 16:30:00,62.9,0.0,29.87,WSW,254,6.0,7.0,0,0.00,,,0.08,VWS V14.01,2013-08-03 20:30:00,
2013-08-03 16:32:00,62.8,0.0,29.88,WSW,250,3.0,6.0,0,0.00,,BKN085,0.08,VWS V14.01,2013-08-03 20:32:00,
2013-08-03 16:37:00,62.8,0.0,29.88,WSW,244,3.0,6.0,0,0.00,,BKN085,0.08,VWS V14.01,2013-08-03 20:37:00,
2013-08-03 16:40:00,63.7,0.0,29.87,West,271,7.0,11.0,0,0.00,,,0.08,VWS V14.01,2013-08-03 20:40:00,
2013-08-03 16:42:00,63.1,0.0,29.87,West,268,5.0,7.0,0,0.00,,BKN085,0.08,VWS V14.01,2013-08-03 20:42:00,
2013-08-03 16:47:00,63.5,0.0,29.87,West,279,7.0,11.0,0,0.00,,BKN085,0.08,VWS V14.01,2013-08-03 20:47:00,
2013-08-03 16:50:00,65.2,0.0,29.86,WSW,241,0.0,12.0,0,0.00,,,0.08,VWS V14.01,2013-08-03 20:50:00,
2013-08-03 16:52:00,64.6,0.0,29.87,West,275,4.0,12.0,0,0.00,,BKN085,0.08,VWS V14.01,2013-08-03 20:52:00,
2013-08-03 16:57:00,65.2,0.0,29.86,WSW,238,3.0,12.0,0,0.00,,BKN085,0.08,VWS V14.01,2013-08-03 20:57:00,
2013-08-03 17:00:00,66.3,0.0,29.86,South,188,3.0,6.0,0,0.00,,,0.08,VWS V14.01,2013-08-03 21:00:00,
2013-08-03 17:02:00,65.2,0.0,29.86,West,260,2.0,6.0,0,0.00,,BKN085,0.08,VWS V14.01,2013-08-03 21:02:00,
2013-08-03 17:07:00,66.2,0.0,29.86,ESE,114,2.0,6.0,0,0.00,,BKN085,0.08,VWS V14.01,2013-08-03 21:07:00,
2013-08-03 17:10:00,67.3,0.0,29.86,SW,223,1.0,7.0,0,0.00,,,0.08,VWS V14.01,2013-08-03 21:10:00,
2013-08-03 17:12:00,66.3,0.0,29.86,West,273,3.0,4.0,0,0.00,,BKN085,0.08,VWS V14.01,2013-08-03 21:12:00,
2013-08-03 17:17:00,67.2,0.0,29.86,WSW,249,5.0,7.0,0,0.00,,BKN085,0.08,VWS V14.01,2013-08-03 21:17:00,
2013-08-03 17:20:00,67.7,0.0,29.85,SW,227,0.0,7.0,0,0.00,,,0.08,VWS V14.01,2013-08-03 21:20:00,
2013-08-03 17:22:00,67.4,0.0,29.86,WSW,257,4.0,7.0,0,0.00,,BKN085,0.08,VWS V14.01,2013-08-03 21:22:00,
2013-08-03 17:27:00,67.6,0.0,29.85,WSW,244,0.0,7.0,0,0.00,,BKN085,0.08,VWS V14.01,2013-08-03 21:27:00,
2013-08-03 17:30:00,68.4,13.8,29.86,WNW,288,8.0,10.0,12,0.00,,,0.08,VWS V14.01,2013-08-03 21:30:00,
2013-08-03 17:32:00,67.8,0.0,29.85,SSW,211,0.0,5.0,0,0.00,,BKN090,0.08,VWS V14.01,2013-08-03 21:32:00,
2013-08-03 17:37:00,68.4,7.4,29.86,West,265,4.0,9.0,9,0.00,,BKN090,0.08,VWS V14.01,2013-08-03 21:37:00,
2013-08-03 17:40:00,68.2,33.0,29.86,WSW,252,5.0,10.0,27,0.00,,,0.08,VWS V14.01,2013-08-03 21:40:00,
2013-08-03 17:42:00,68.5,28.2,29.86,WNW,294,4.0,10.0,22,0.00,,BKN090,0.08,VWS V14.01,2013-08-03 21:42:00,
2013-08-03 17:47:00,68.3,29.1,29.86,WSW,251,5.0,10.0,23,0.00,,BKN090,0.08,VWS V14.01,2013-08-03 21:47:00,
2013-08-03 17:50:00,67.3,19.6,29.86,WNW,295,3.0,13.0,16,0.00,,,0.08,VWS V14.01,2013-08-03 21:50:00,
2013-08-03 17:52:00,67.7,19.9,29.86,WSW,256,3.0,7.0,16,0.00,,BKN090,0.08,VWS V14.01,2013-08-03 21:52:00,
2013-08-03 17:57:00,67.4,16.6,29.86,NW,306,10.0,13.0,14,0.00,,BKN090,0.08,VWS V14.01,2013-08-03 21:57:00,
2013-08-03 18:00:00,67.6,9.1,29.87,West,265,5.0,12.0,10,0.00,,,0.08,VWS V14.01,2013-08-03 22:00:00,
2013-08-03 18:02:00,67.5,15.0,29.86,West,261,5.0,12.0,13,0.00,,OVC047,0.08,VWS V14.01,2013-08-03 22:02:00,
2013-08-03 18:07:00,67.6,6.8,29.87,WNW,287,5.0,12.0,9,0.00,,OVC047,0.08,VWS V14.01,2013-08-03 22:07:00,
2013-08-03 18:10:00,67.9,13.4,29.87,West,272,3.0,7.0,12,0.00,,,0.08,VWS V14.01,2013-08-03 22:10:00,
2013-08-03 18:12:00,67.7,15.1,29.87,West,267,3.0,7.0,13,0.00,,OVC047,0.08,VWS V14.01,2013-08-03 22:12:00,
2013-08-03 18:17:00,67.9,18.6,29.87,West,273,2.0,7.0,15,0.00,,OVC047,0.08,VWS V14.01,2013-08-03 22:17:00,
2013-08-03 18:20:00,67.8,27.6,29.86,NW,319,9.0,10.0,22,0.00,,,0.08,VWS V14.01,2013-08-03 22:20:00,
2013-08-03 18:23:00,68.3,13.8,29.86,WNW,300,3.0,7.0,12,0.00,,OVC047,0.08,VWS V14.01,2013-08-03 22:23:00,
2013-08-03 18:28:00,67.9,27.7,29.86,NW,307,10.0,10.0,22,0.00,,OVC047,0.08,VWS V14.01,2013-08-03 22:28:00,
2013-08-03 18:30:00,66.7,-10.9,29.87,West,267,6.0,9.0,4,0.00,,,0.08,VWS V14.01,2013-08-03 22:30:00,
2013-08-03 18:33:00,67.0,17.9,29.86,NW,305,5.0,9.0,15,0.00,,OVC019,0.08,VWS V14.01,2013-08-03 22:33:00,
2013-08-03 18:38:00,66.7,-10.9,29.87,West,265,2.0,9.0,4,0.00,,OVC019,0.08,VWS V14.01,2013-08-03 22:38:00,
2013-08-03 18:40:00,66.0,0.0,29.87,WNW,303,4.0,9.0,0,0.00,,,0.08,VWS V14.01,2013-08-03 22:40:00,
2013-08-03 18:42:00,66.4,-11.0,29.87,NW,306,4.0,7.0,2,0.00,,OVC019,0.08,VWS V14.01,2013-08-03 22:42:00,
2013-08-03 18:48:00,66.0,0.0,29.87,WNW,297,6.0,9.0,0,0.00,,OVC019,0.08,VWS V14.01,2013-08-03 22:48:00,
2013-08-03 18:50:00,65.9,0.0,29.87,WNW,289,3.0,9.0,0,0.00,,,0.08,VWS V14.01,2013-08-03 22:50:00,
2013-08-03 18:53:00,65.9,0.0,29.87,West,280,4.0,7.0,0,0.00,,OVC019,0.08,VWS V14.01,2013-08-03 22:53:00,
2013-08-03 18:58:00,65.9,0.0,29.87,WNW,288,4.0,9.0,0,0.00,,OVC019,0.08,VWS V14.01,2013-08-03 22:58:00,
2013-08-03 19:00:00,65.7,0.0,29.88,WNW,291,7.0,10.0,0,0.00,,,0.08,VWS V14.01,2013-08-03 23:00:00,
2013-08-03 19:03:00,65.9,0.0,29.87,West,277,3.0,7.0,0,0.00,,OVC055,0.08,VWS V14.01,2013-08-03 23:03:00,
2013-08-03 19:08:00,65.7,0.0,29.88,WNW,290,7.0,10.0,0,0.00,,OVC055,0.08,VWS V14.01,2013-08-03 23:08:00,
2013-08-03 19:10:00,65.4,0.0,29.88,WNW,294,1.0,7.0,0,0.00,,,0.08,VWS V14.01,2013-08-03 23:10:00,
2013-08-03 19:13:00,65.6,0.0,29.88,WNW,294,2.0,7.0,0,0.00,,OVC055,0.08,VWS V14.01,2013-08-03 23:13:00,
2013-08-03 19:18:00,65.4,0.0,29.88,WNW,294,1.0,7.0,0,0.00,,OVC055,0.08,VWS V14.01,2013-08-03 23:18:00,
2013-08-03 19:20:00,64.8,0.0,29.87,WNW,286,10.0,10.0,0,0.00,,,0.08,VWS V14.01,2013-08-03 23:20:00,
2013-08-03 19:23:00,65.3,0.0,29.87,WNW,300,5.0,6.0,0,0.00,,OVC055,0.08,VWS V14.01,2013-08-03 23:23:00,
2013-08-03 19:28:00,64.8,0.0,29.87,WNW,286,10.0,10.0,0,0.00,,OVC055,0.08,VWS V14.01,2013-08-03 23:28:00,
2013-08-03 19:30:00,64.0,0.0,29.88,WNW,282,4.0,10.0,0,0.00,,,0.08,VWS V14.01,2013-08-03 23:30:00,
2013-08-03 19:33:00,64.4,0.0,29.87,WNW,287,6.0,10.0,0,0.00,,OVC080,0.08,VWS V14.01,2013-08-03 23:33:00,
2013-08-03 19:38:00,64.0,0.0,29.88,WNW,282,4.0,10.0,0,0.00,,OVC080,0.08,VWS V14.01,2013-08-03 23:38:00,
2013-08-03 19:40:00,63.5,0.0,29.88,West,281,4.0,5.0,0,0.00,,,0.08,VWS V14.01,2013-08-03 23:40:00,
2013-08-03 19:43:00,63.7,0.0,29.88,WNW,282,3.0,5.0,0,0.00,,OVC080,0.08,VWS V14.01,2013-08-03 23:43:00,
2013-08-03 19:48:00,63.5,0.0,29.88,West,281,4.0,5.0,0,0.00,,OVC080,0.08,VWS V14.01,2013-08-03 23:48:00,
2013-08-03 19:50:00,62.7,0.0,29.88,West,281,3.0,6.0,0,0.00,,,0.08,VWS V14.01,2013-08-03 23:50:00,
2013-08-03 19:53:00,63.1,0.0,29.88,West,281,4.0,5.0,0,0.00,,OVC080,0.08,VWS V14.01,2013-08-03 23:53:00,
2013-08-03 19:58:00,62.7,0.0,29.88,West,281,2.0,3.0,0,0.00,,OVC080,0.08,VWS V14.01,2013-08-03 23:58:00,
2013-08-03 20:00:00,62.0,0.0,29.89,West,281,0.0,3.0,0,0.00,,,0.08,VWS V14.01,2013-08-04 00:00:00,
2013-08-03 20:03:00,62.4,0.0,29.88,West,281,2.0,3.0,0,0.00,,OVC060,0.08,VWS V14.01,2013-08-04 00:03:00,
2013-08-03 20:09:00,62.0,0.0,29.89,West,281,0.0,3.0,0,0.00,,OVC060,0.08,VWS V14.01,2013-08-04 00:09:00,
2013-08-03 20:10:00,61.1,0.0,29.89,West,281,4.0,5.0,0,0.00,,,0.08,VWS V14.01,2013-08-04 00:10:00,
2013-08-03 20:14:00,61.4,0.0,29.89,West,281,2.0,2.0,0,0.00,,OVC060,0.08,VWS V14.01,2013-08-04 00:14:00,
2013-08-03 20:19:00,61.0,0.0,29.89,West,281,3.0,5.0,0,0.00,,OVC060,0.08,VWS V14.01,2013-08-04 00:19:00,
2013-08-03 20:20:00,60.7,0.0,29.89,WNW,283,5.0,6.0,0,0.00,,,0.08,VWS V14.01,2013-08-04 00:20:00,
2013-08-03 20:24:00,60.8,0.0,29.89,West,281,5.0,6.0,0,0.00,,OVC060,0.08,VWS V14.01,2013-08-04 00:24:00,
2013-08-03 20:29:00,60.7,0.0,29.89,WNW,289,5.0,9.0,0,0.00,,OVC060,0.08,VWS V14.01,2013-08-04 00:29:00,
2013-08-03 20:30:00,60.9,0.0,29.89,WNW,288,3.0,9.0,0,0.00,,,0.08,VWS V14.01,2013-08-04 00:30:00,
2013-08-03 20:34:00,60.8,0.0,29.89,WNW,288,1.0,9.0,0,0.00,,BKN055,0.08,VWS V14.01,2013-08-04 00:34:00,
2013-08-03 20:39:00,60.9,0.0,29.89,WNW,288,3.0,3.0,0,0.00,,BKN055,0.08,VWS V14.01,2013-08-04 00:39:00,
2013-08-03 20:40:00,60.6,0.0,29.89,WNW,288,3.0,5.0,0,0.00,,,0.08,VWS V14.01,2013-08-04 00:40:00,
2013-08-03 20:44:00,60.7,0.0,29.89,WNW,288,2.0,5.0,0,0.00,,BKN055,0.08,VWS V14.01,2013-08-04 00:44:00,
2013-08-03 20:49:00,60.6,0.0,29.89,WNW,288,2.0,4.0,0,0.00,,BKN055,0.08,VWS V14.01,2013-08-04 00:49:00,
2013-08-03 20:50:00,60.7,0.0,29.90,WNW,288,0.0,4.0,0,0.00,,,0.08,VWS V14.01,2013-08-04 00:50:00,
2013-08-03 20:54:00,60.6,0.0,29.90,WNW,288,1.0,4.0,0,0.00,,BKN055,0.08,VWS V14.01,2013-08-04 00:54:00,
2013-08-03 20:59:00,60.7,0.0,29.90,WNW,288,1.0,2.0,0,0.00,,BKN055,0.08,VWS V14.01,2013-08-04 00:59:00,
2013-08-03 21:00:00,60.6,0.0,29.91,WNW,288,0.0,2.0,0,0.00,,,0.08,VWS V14.01,2013-08-04 01:00:00,
2013-08-03 21:04:00,60.8,0.0,29.90,WNW,288,0.0,2.0,0,0.00,,BKN055,0.08,VWS V14.01,2013-08-04 01:04:00,
2013-08-03 21:09:00,60.6,0.0,29.91,WNW,288,1.0,2.0,0,0.00,,BKN055,0.08,VWS V14.01,2013-08-04 01:09:00,
2013-08-03 21:10:00,60.6,0.0,29.91,WNW,288,0.0,5.0,0,0.00,,,0.08,VWS V14.01,2013-08-04 01:10:00,
2013-08-03 21:14:00,60.7,0.0,29.91,WNW,288,2.0,3.0,0,0.00,,BKN055,0.08,VWS V14.01,2013-08-04 01:14:00,
2013-08-03 21:19:00,60.6,0.0,29.91,WNW,288,2.0,2.0,0,0.00,,BKN055,0.08,VWS V14.01,2013-08-04 01:19:00,
2013-08-03 21:20:00,60.3,0.0,29.91,WNW,288,0.0,3.0,0,0.00,,,0.08,VWS V14.01,2013-08-04 01:20:00,
2013-08-03 21:24:00,60.4,0.0,29.91,WNW,288,1.0,3.0,0,0.00,,BKN055,0.08,VWS V14.01,2013-08-04 01:24:00,
2013-08-03 21:29:00,60.2,0.0,29.91,WNW,288,0.0,1.0,0,0.00,,BKN055,0.08,VWS V14.01,2013-08-04 01:29:00,
2013-08-03 21:30:00,60.0,0.0,29.91,NW,322,6.0,6.0,0,0.00,,,0.08,VWS V14.01,2013-08-04 01:30:00,
2013-08-03 21:34:00,60.1,0.0,29.91,WNW,288,0.0,1.0,0,0.00,,SCT048,0.08,VWS V14.01,2013-08-04 01:34:00,
2013-08-03 21:39:00,60.1,0.0,29.91,NW,309,3.0,7.0,0,0.00,,SCT048,0.08,VWS V14.01,2013-08-04 01:39:00,
2013-08-03 21:40:00,60.6,0.0,29.91,NW,306,1.0,7.0,0,0.00,,,0.08,VWS V14.01,2013-08-04 01:40:00,
2013-08-03 21:44:00,60.6,0.0,29.91,NW,306,3.0,7.0,0,0.00,,SCT048,0.08,VWS V14.01,2013-08-04 01:44:00,
2013-08-03 21:49:00,60.5,0.0,29.91,NW,306,3.0,3.0,0,0.00,,SCT048,0.08,VWS V14.01,2013-08-04 01:49:00,
2013-08-03 21:50:00,59.5,0.0,29.91,NW,306,1.0,4.0,0,0.00,,,0.08,VWS V14.01,2013-08-04 01:50:00,
2013-08-03 21:54:00,60.0,0.0,29.91,NW,306,1.0,4.0,0,0.00,,SCT048,0.08,VWS V14.01,2013-08-04 01:54:00,
2013-08-03 21:59:00,59.4,0.0,29.91,NW,306,2.0,3.0,0,0.00,,SCT048,0.08,VWS V14.01,2013-08-04 01:59:00,
2013-08-03 22:00:00,59.6,0.0,29.91,NW,306,2.0,5.0,0,0.00,,,0.08,VWS V14.01,2013-08-04 02:00:00,
2013-08-03 22:04:00,59.4,0.0,29.91,NW,306,3.0,5.0,0,0.00,,SCT048,0.08,VWS V14.01,2013-08-04 02:04:00,
2013-08-03 22:09:00,59.7,0.0,29.91,NW,306,4.0,4.0,0,0.00,,SCT048,0.08,VWS V14.01,2013-08-04 02:09:00,
2013-08-03 22:10:00,60.0,0.0,29.91,NW,306,0.0,5.0,0,0.00,,,0.08,VWS V14.01,2013-08-04 02:10:00,
2013-08-03 22:14:00,60.0,0.0,29.91,NW,306,2.0,5.0,0,0.00,,SCT048,0.08,VWS V14.01,2013-08-04 02:14:00,
2013-08-03 22:19:00,59.9,0.0,29.91,NW,306,0.0,1.0,0,0.00,,SCT048,0.08,VWS V14.01,2013-08-04 02:19:00,
2013-08-03 22:20:00,59.5,0.0,29.91,NW,306,0.0,2.0,0,0.00,,,0.08,VWS V14.01,2013-08-04 02:20:00,
2013-08-03 22:24:00,59.7,0.0,29.91,NW,306,0.0,2.0,0,0.00,,SCT048,0.08,VWS V14.01,2013-08-04 02:24:00,
2013-08-03 22:29:00,59.4,0.0,29.91,NW,306,1.0,1.0,0,0.00,,SCT048,0.08,VWS V14.01,2013-08-04 02:29:00,
2013-08-03 22:30:00,59.3,0.0,29.92,NW,306,0.0,3.0,0,0.00,,,0.08,VWS V14.01,2013-08-04 02:30:00,
2013-08-03 22:34:00,59.5,0.0,29.91,NW,306,1.0,3.0,0,0.00,,CLR,0.08,VWS V14.01,2013-08-04 02:34:00,
2013-08-03 22:39:00,59.2,0.0,29.92,NW,306,0.0,1.0,0,0.00,,CLR,0.08,VWS V14.01,2013-08-04 02:39:00,
2013-08-03 22:40:00,58.7,0.0,29.92,NW,306,1.0,2.0,0,0.00,,,0.08,VWS V14.01,2013-08-04 02:40:00,
2013-08-03 22:44:00,58.9,0.0,29.92,NW,306,0.0,2.0,0,0.00,,CLR,0.08,VWS V14.01,2013-08-04 02:44:00,
2013-08-03 22:49:00,58.7,0.0,29.92,NW,306,1.0,2.0,0,0.00,,CLR,0.08,VWS V14.01,2013-08-04 02:49:00,
2013-08-03 22:50:00,58.7,0.0,29.92,NW,306,0.0,2.0,0,0.00,,,0.08,VWS V14.01,2013-08-04 02:50:00,
2013-08-03 22:54:00,58.7,0.0,29.92,NW,306,0.0,2.0,0,0.00,,CLR,0.08,VWS V14.01,2013-08-04 02:54:00,
2013-08-03 22:59:00,58.7,0.0,29.92,NW,306,0.0,1.0,0,0.00,,CLR,0.08,VWS V14.01,2013-08-04 02:59:00,
2013-08-03 23:00:00,58.6,0.0,29.92,NW,306,0.0,1.0,0,0.00,,,0.08,VWS V14.01,2013-08-04 03:00:00,
2013-08-03 23:04:00,58.7,0.0,29.92,NW,306,0.0,1.0,0,0.00,,CLR,0.08,VWS V14.01,2013-08-04 03:04:00,
2013-08-03 23:10:00,58.5,0.0,29.92,NW,306,0.0,0.0,0,0.00,,CLR,0.08,VWS V14.01,2013-08-04 03:10:00,
2013-08-03 23:15:00,58.4,0.0,29.92,NW,306,0.0,0.0,0,0.00,,CLR,0.08,VWS V14.01,2013-08-04 03:15:00,
2013-08-03 23:20:00,58.0,0.0,29.92,NW,306,1.0,3.0,0,0.00,,CLR,0.08,VWS V14.01,2013-08-04 03:20:00,
2013-08-03 23:25:00,57.6,0.0,29.92,NW,306,1.0,3.0,0,0.00,,CLR,0.08,VWS V14.01,2013-08-04 03:25:00,
2013-08-03 23:30:00,57.4,0.0,29.92,NW,306,1.0,2.0,0,0.00,,CLR,0.08,VWS V14.01,2013-08-04 03:30:00,
2013-08-03 23:34:00,57.3,0.0,29.92,NW,306,0.0,2.0,0,0.00,,CLR,0.08,VWS V14.01,2013-08-04 03:34:00,
2013-08-03 23:40:00,57.2,0.0,29.92,NW,306,1.0,2.0,0,0.00,,CLR,0.08,VWS V14.01,2013-08-04 03:40:00,
2013-08-03 23:45:00,57.0,0.0,29.92,NW,306,1.0,3.0,0,0.00,,CLR,0.08,VWS V14.01,2013-08-04 03:45:00,
2013-08-03 23:50:00,56.9,0.0,29.92,NW,306,1.0,2.0,0,0.00,,CLR,0.08,VWS V14.01,2013-08-04 03:50:00,
2013-08-03 23:55:00,56.9,0.0,29.92,NW,306,1.0,3.0,0,0.00,,CLR,0.08,VWS V14.01,2013-08-04 03:55:00,